General Aviation Weather

Text Reports

Enter one or more of the following location identifiers separated by a space:

Zip Code, Four-Character ICAO or Three-Character IATA airport codes.

METAR - Aviation Routine Weather Report
KMGJ - Montgomery, New York
Updated at 2:54 AM GMT on July 23, 2014 (10:54 PM EDT):
METAR KMGJ 230254Z AUTO 20004KT 10SM CLR 22/20 A3003 RMK AO2 SLP166 T02220200 58005 TSNO
TAF - Terminal Area Forecast
KMGJ - Montgomery, New York
Updated at 2:54 AM GMT on July 23, 2014 (10:54 PM EDT):
No TAF is currently available for this location.
Decoded:
No decoded TAF is available.
PIREP - Pilot Weather Report
KMGJ - Montgomery, New York
Updated at 2:54 AM GMT on July 23, 2014 (10:54 PM EDT):
No PIREP is currently available for this location.
AIRMET - Airmens Meteorological Information
KMGJ - Montgomery, New York
Updated at 2:54 AM GMT on July 23, 2014 (10:54 PM EDT):
No AIRMET is currently available for this location.
SIGMET - Significant Meteorological Information
KMGJ - Montgomery, New York
Updated at 2:54 AM GMT on July 23, 2014 (10:54 PM EDT):
No SIGMET is currently available for this location.
NOTAM - Notice to Airmen
KMGJ - Montgomery, New York
Updated at 2:54 AM GMT on July 23, 2014 (10:54 PM EDT):
No NOTAM is currently available for this location.
Forecast Area
KMGJ - Montgomery, New York
Updated at 2:54 AM GMT on July 23, 2014 (10:54 PM EDT):
No NOTAM is currently available for this location.
Aviation Weather Maps